createdAt,value
2023-03-29T00:00:44.596Z,4.60
2023-03-29T00:03:15.888Z,4.50
2023-03-29T00:05:48.164Z,4.60
2023-03-29T00:08:17.565Z,4.60
2023-03-29T00:10:51.947Z,4.70
2023-03-29T00:13:20.221Z,4.60
2023-03-29T00:15:49.785Z,4.60
2023-03-29T00:18:18.011Z,4.40
2023-03-29T00:20:47.403Z,4.40
2023-03-29T00:23:15.865Z,4.40
2023-03-29T00:25:46.863Z,4.30
2023-03-29T00:28:17.576Z,4.30
2023-03-29T00:30:47.569Z,4.20
2023-03-29T00:33:19.054Z,4.20
2023-03-29T00:35:49.500Z,4.20
2023-03-29T00:38:19.733Z,4.10
2023-03-29T00:40:48.389Z,4.00
2023-03-29T00:43:17.084Z,4.10
2023-03-29T00:45:46.634Z,4.10
2023-03-29T00:48:29.053Z,4.20
2023-03-29T00:51:04.900Z,4.20
2023-03-29T00:53:37.541Z,4.20
2023-03-29T00:56:10.731Z,4.20
2023-03-29T00:58:49.016Z,4.10
2023-03-29T01:01:25.999Z,4.10
2023-03-29T01:04:03.338Z,4.00
2023-03-29T01:06:44.036Z,3.90
2023-03-29T01:09:16.479Z,4.00
2023-03-29T01:11:52.577Z,3.90
2023-03-29T01:14:24.271Z,3.90
2023-03-29T01:16:53.932Z,3.90
2023-03-29T01:19:34.095Z,3.90
2023-03-29T01:22:15.434Z,3.90
2023-03-29T01:25:05.442Z,3.90
2023-03-29T01:27:55.808Z,3.90
2023-03-29T01:30:28.295Z,3.90
2023-03-29T01:33:02.361Z,3.90
2023-03-29T01:35:47.229Z,3.90
2023-03-29T01:38:24.531Z,3.80
2023-03-29T01:40:56.533Z,3.80
2023-03-29T01:43:31.008Z,3.90
2023-03-29T01:46:06.306Z,3.90
2023-03-29T01:48:43.429Z,3.90
2023-03-29T01:51:19.179Z,3.90
2023-03-29T01:53:56.310Z,3.90
2023-03-29T01:56:31.146Z,3.90
2023-03-29T01:59:05.555Z,3.80
2023-03-29T02:01:39.946Z,3.90
2023-03-29T02:04:13.248Z,3.90
2023-03-29T02:06:44.971Z,3.90
2023-03-29T02:09:13.827Z,3.90
2023-03-29T02:11:44.502Z,4.00
2023-03-29T02:14:15.569Z,4.00
2023-03-29T02:16:46.360Z,4.00
2023-03-29T02:19:18.616Z,4.00
2023-03-29T02:21:53.451Z,4.10
2023-03-29T02:24:28.687Z,4.00
2023-03-29T02:26:57.111Z,4.00
2023-03-29T02:29:27.564Z,4.00
2023-03-29T02:32:07.077Z,4.00
2023-03-29T02:34:37.756Z,4.10
2023-03-29T02:37:11.876Z,4.10
2023-03-29T02:39:41.326Z,4.10
2023-03-29T02:42:12.161Z,4.10
2023-03-29T02:44:48.787Z,4.10
2023-03-29T02:47:20.739Z,4.10
2023-03-29T02:49:50.554Z,4.10
2023-03-29T02:52:26.066Z,4.10
2023-03-29T02:54:57.021Z,4.10
2023-03-29T02:57:26.899Z,4.10
2023-03-29T03:00:00.130Z,4.00
2023-03-29T03:02:32.123Z,4.20
2023-03-29T03:05:01.579Z,4.20
2023-03-29T03:07:33.042Z,4.20
2023-03-29T03:10:05.055Z,4.20
2023-03-29T03:12:34.542Z,4.30
2023-03-29T03:15:04.492Z,4.20
2023-03-29T03:17:33.555Z,4.30
2023-03-29T03:20:05.245Z,4.30
2023-03-29T03:23:10.906Z,4.30
2023-03-29T03:25:49.198Z,4.40
2023-03-29T03:28:21.618Z,4.30
2023-03-29T03:30:54.261Z,4.30
2023-03-29T03:33:22.795Z,4.30
2023-03-29T03:35:51.068Z,4.40
2023-03-29T03:40:45.636Z,4.40
2023-03-29T03:43:14.926Z,4.40
2023-03-29T03:45:44.281Z,4.40
2023-03-29T03:48:17.754Z,4.40
2023-03-29T03:50:53.715Z,4.40
2023-03-29T03:56:11.768Z,4.50
2023-03-29T03:58:41.771Z,4.50
2023-03-29T04:01:19.817Z,4.50
2023-03-29T04:03:52.641Z,4.50
2023-03-29T04:06:20.879Z,4.50
2023-03-29T04:08:50.752Z,4.50
2023-03-29T04:11:57.192Z,4.50
2023-03-29T04:14:27.892Z,4.50
2023-03-29T04:16:58.812Z,4.50
2023-03-29T04:19:31.490Z,4.50
2023-03-29T04:22:00.801Z,4.50
2023-03-29T04:24:29.410Z,4.50
2023-03-29T04:27:00.201Z,4.50
2023-03-29T04:29:47.141Z,4.50
2023-03-29T04:32:15.381Z,4.50
2023-03-29T04:34:47.494Z,4.60
2023-03-29T04:37:22.075Z,4.50
2023-03-29T04:39:50.650Z,4.50
2023-03-29T04:48:51.878Z,4.60
2023-03-29T04:51:24.462Z,4.60
2023-03-29T04:53:54.244Z,4.60
2023-03-29T04:56:26.411Z,4.70
2023-03-29T04:58:59.657Z,4.60
2023-03-29T05:01:31.643Z,4.70
2023-03-29T05:03:59.984Z,4.70
2023-03-29T05:06:31.176Z,4.70
2023-03-29T05:09:03.661Z,4.70
2023-03-29T05:11:33.269Z,4.70
2023-03-29T05:14:03.438Z,4.70
2023-03-29T05:16:35.392Z,4.70
2023-03-29T05:19:07.047Z,4.70
2023-03-29T05:21:37.693Z,4.80
2023-03-29T05:24:10.347Z,4.90
2023-03-29T05:26:40.152Z,4.90
2023-03-29T05:29:20.365Z,4.90
2023-03-29T05:31:52.910Z,4.80
2023-03-29T05:34:34.522Z,4.80
2023-03-29T05:37:21.193Z,4.90
2023-03-29T05:39:50.378Z,5.00
2023-03-29T05:42:22.645Z,5.00
2023-03-29T05:44:54.100Z,5.00
2023-03-29T05:47:24.082Z,5.10
2023-03-29T05:49:53.914Z,5.10
2023-03-29T05:52:23.840Z,5.20
2023-03-29T05:54:55.641Z,5.20
2023-03-29T05:57:25.439Z,5.20
2023-03-29T05:59:54.997Z,5.20
2023-03-29T06:02:24.952Z,5.20
2023-03-29T06:04:55.977Z,5.30
2023-03-29T06:07:26.534Z,5.30
2023-03-29T06:09:55.599Z,5.30
2023-03-29T06:12:24.966Z,5.30
2023-03-29T06:14:53.402Z,5.30
2023-03-29T06:17:22.432Z,5.30
2023-03-29T06:19:56.290Z,5.40
2023-03-29T06:22:26.270Z,5.40
2023-03-29T06:24:59.117Z,5.50
2023-03-29T06:27:29.047Z,5.60
2023-03-29T06:30:05.125Z,5.80
2023-03-29T06:32:35.867Z,5.90
2023-03-29T06:35:05.107Z,6.00
2023-03-29T06:37:36.369Z,6.10
2023-03-29T06:40:07.218Z,6.30
2023-03-29T06:42:35.950Z,6.30
2023-03-29T06:45:06.617Z,6.40
2023-03-29T06:47:34.923Z,6.30
2023-03-29T06:50:08.045Z,6.40
2023-03-29T06:52:39.834Z,6.30
2023-03-29T06:55:14.922Z,6.20
2023-03-29T06:58:47.518Z,6.10
2023-03-29T07:01:18.347Z,5.90
2023-03-29T07:03:47.756Z,6.00
2023-03-29T07:06:20.642Z,6.10
2023-03-29T07:08:52.859Z,6.20
2023-03-29T07:11:22.055Z,6.50
2023-03-29T07:13:51.138Z,6.70
2023-03-29T07:16:30.339Z,6.70
2023-03-29T07:18:59.677Z,6.90
2023-03-29T07:21:30.756Z,6.80
2023-03-29T07:24:02.289Z,6.70
2023-03-29T07:26:31.774Z,6.90
2023-03-29T07:29:04.462Z,7.30
2023-03-29T07:31:35.952Z,7.00
2023-03-29T07:34:06.781Z,7.10
2023-03-29T07:36:37.405Z,6.80
2023-03-29T07:39:08.898Z,6.90
2023-03-29T07:41:37.692Z,6.60
2023-03-29T07:44:09.191Z,6.60
2023-03-29T07:46:43.172Z,6.50
2023-03-29T07:49:11.337Z,6.60
2023-03-29T07:51:39.605Z,6.70
2023-03-29T07:54:09.329Z,7.00
2023-03-29T07:56:43.168Z,7.60
2023-03-29T07:59:12.622Z,7.80
2023-03-29T08:01:41.352Z,7.60
2023-03-29T08:04:09.807Z,7.70
2023-03-29T08:06:38.896Z,7.40
2023-03-29T08:09:08.852Z,7.50
2023-03-29T08:11:40.655Z,7.30
2023-03-29T08:14:29.346Z,7.60
2023-03-29T08:16:57.868Z,7.90
2023-03-29T08:19:26.307Z,8.00
2023-03-29T08:21:55.111Z,7.90
2023-03-29T08:24:24.881Z,7.40
2023-03-29T08:27:16.398Z,7.20
2023-03-29T08:29:45.836Z,7.60
2023-03-29T08:32:14.230Z,8.00
2023-03-29T08:34:43.978Z,8.40
2023-03-29T08:37:15.058Z,7.80
2023-03-29T08:39:46.333Z,8.10
2023-03-29T08:42:43.625Z,7.90
2023-03-29T08:45:24.705Z,8.10
2023-03-29T08:47:59.473Z,9.20
2023-03-29T08:50:35.676Z,8.60
2023-03-29T08:53:08.550Z,9.10
2023-03-29T08:55:44.630Z,8.90
2023-03-29T08:58:17.338Z,8.70
2023-03-29T09:00:49.800Z,8.80
2023-03-29T09:03:30.905Z,8.60
2023-03-29T09:06:05.340Z,8.40
2023-03-29T09:08:35.706Z,9.70
2023-03-29T09:11:26.198Z,11.20
2023-03-29T09:14:09.939Z,10.40
2023-03-29T09:16:45.055Z,10.30
2023-03-29T09:19:26.222Z,9.40
2023-03-29T09:22:14.054Z,9.10
2023-03-29T09:24:54.431Z,9.10
2023-03-29T09:27:28.771Z,9.50
2023-03-29T09:30:21.512Z,9.30
2023-03-29T09:32:56.844Z,9.10
2023-03-29T09:35:28.445Z,9.40
2023-03-29T09:38:01.728Z,9.40
2023-03-29T09:40:43.187Z,9.30
2023-03-29T09:43:25.786Z,9.50
2023-03-29T09:46:00.709Z,9.40
2023-03-29T09:49:20.313Z,9.60
2023-03-29T09:52:01.522Z,9.90
2023-03-29T09:54:37.828Z,9.70
2023-03-29T09:57:07.020Z,9.90
2023-03-29T09:59:37.432Z,9.80
2023-03-29T10:02:10.737Z,10.10
2023-03-29T10:04:39.221Z,9.90
2023-03-29T10:07:42.397Z,9.70
2023-03-29T10:10:21.120Z,9.80
2023-03-29T10:12:53.118Z,9.80
2023-03-29T10:15:32.220Z,9.90
2023-03-29T10:18:03.274Z,10.40
2023-03-29T10:20:31.745Z,9.80
2023-03-29T10:23:01.224Z,10.10
2023-03-29T10:25:31.721Z,9.90
2023-03-29T10:28:17.612Z,10.30
2023-03-29T10:33:45.880Z,10.20
2023-03-29T10:36:16.002Z,10.30
2023-03-29T10:38:46.391Z,10.20
2023-03-29T10:41:17.381Z,10.60
2023-03-29T10:43:49.552Z,10.60
2023-03-29T10:46:25.081Z,10.60
2023-03-29T10:49:00.017Z,10.80
2023-03-29T10:51:31.290Z,10.10
2023-03-29T10:54:01.834Z,9.70
2023-03-29T10:56:41.418Z,9.80
2023-03-29T10:59:24.441Z,9.70
2023-03-29T11:04:48.933Z,10.00
2023-03-29T11:10:59.477Z,10.00
2023-03-29T11:14:05.155Z,10.00
2023-03-29T11:20:14.223Z,9.90
2023-03-29T11:22:49.666Z,9.70
2023-03-29T11:25:31.097Z,10.10
2023-03-29T11:28:08.079Z,10.30
2023-03-29T11:30:49.162Z,10.20
2023-03-29T11:33:28.991Z,10.40
2023-03-29T11:36:15.461Z,10.40
2023-03-29T11:42:13.184Z,10.90
2023-03-29T11:47:50.254Z,11.20
2023-03-29T11:50:28.927Z,11.30
2023-03-29T11:53:22.540Z,11.50
2023-03-29T11:55:53.856Z,11.40
2023-03-29T12:01:31.642Z,11.40
2023-03-29T12:04:21.070Z,11.80
2023-03-29T12:06:54.699Z,12.10
2023-03-29T12:09:47.190Z,11.60
2023-03-29T12:12:21.780Z,11.20
2023-03-29T12:15:02.219Z,11.80
2023-03-29T12:20:36.431Z,11.60
2023-03-29T12:23:06.805Z,11.90
2023-03-29T12:25:48.299Z,11.90
2023-03-29T12:28:33.378Z,12.10
2023-03-29T12:31:32.253Z,12.20
2023-03-29T12:34:31.123Z,12.00
2023-03-29T12:37:25.136Z,12.30
2023-03-29T12:39:55.622Z,12.50
2023-03-29T12:42:26.093Z,11.80
2023-03-29T12:44:59.924Z,12.10
2023-03-29T12:47:47.341Z,12.00
2023-03-29T12:50:29.262Z,12.40
2023-03-29T12:53:06.417Z,12.50
2023-03-29T12:55:50.162Z,12.60
2023-03-29T12:58:58.059Z,12.60
2023-03-29T13:01:30.009Z,12.40
2023-03-29T13:04:16.001Z,12.40
2023-03-29T13:10:30.864Z,12.40
2023-03-29T13:13:09.288Z,12.10
2023-03-29T13:15:39.316Z,12.50
2023-03-29T13:18:24.586Z,12.20
2023-03-29T13:21:00.294Z,12.70
2023-03-29T13:23:41.620Z,12.50
2023-03-29T13:26:52.216Z,12.10
2023-03-29T13:30:03.343Z,12.10
2023-03-29T13:33:14.801Z,12.60
2023-03-29T13:35:57.148Z,12.50
2023-03-29T13:38:36.145Z,12.80
2023-03-29T13:41:06.122Z,13.10
2023-03-29T13:43:37.698Z,13.00
2023-03-29T13:46:22.519Z,13.20
2023-03-29T13:49:08.633Z,13.00
2023-03-29T13:51:42.774Z,13.00
2023-03-29T13:54:46.722Z,12.90
2023-03-29T13:57:20.017Z,13.50
2023-03-29T13:59:53.393Z,13.70
2023-03-29T14:03:19.861Z,14.30
2023-03-29T14:06:04.871Z,14.20
2023-03-29T14:08:46.555Z,14.40
2023-03-29T14:11:31.972Z,14.30
2023-03-29T14:16:52.054Z,13.20
2023-03-29T14:19:48.316Z,13.20
2023-03-29T14:22:21.971Z,13.20
2023-03-29T14:24:54.174Z,13.40
2023-03-29T14:27:23.430Z,12.90
2023-03-29T14:29:53.346Z,12.90
2023-03-29T14:32:31.453Z,13.00
2023-03-29T14:35:02.737Z,12.80
2023-03-29T14:37:32.433Z,12.80
2023-03-29T14:40:12.164Z,12.70
2023-03-29T14:42:42.087Z,12.80
2023-03-29T14:45:53.998Z,12.80
2023-03-29T14:48:24.404Z,12.90
2023-03-29T14:51:04.562Z,13.10
2023-03-29T14:53:38.176Z,13.00
2023-03-29T14:56:11.329Z,12.70
2023-03-29T14:58:46.867Z,12.70
2023-03-29T15:01:18.549Z,12.60
2023-03-29T15:03:54.938Z,12.70
2023-03-29T15:06:27.200Z,12.60
2023-03-29T15:09:06.022Z,12.80
2023-03-29T15:11:38.931Z,12.80
2023-03-29T15:14:10.426Z,12.90
2023-03-29T15:16:47.742Z,12.70
2023-03-29T15:19:19.196Z,12.90
2023-03-29T15:21:49.911Z,12.90
2023-03-29T15:24:29.831Z,13.10
2023-03-29T15:27:05.805Z,13.10
2023-03-29T15:29:42.302Z,13.00
2023-03-29T15:32:12.381Z,13.00
2023-03-29T15:35:02.644Z,12.90
2023-03-29T15:37:35.150Z,12.90
2023-03-29T15:40:10.713Z,12.80
2023-03-29T15:42:40.062Z,12.70
2023-03-29T15:45:17.336Z,12.60
2023-03-29T15:47:51.131Z,12.70
2023-03-29T15:50:34.037Z,12.70
2023-03-29T15:53:15.131Z,12.60
2023-03-29T15:55:51.525Z,12.60
2023-03-29T15:58:23.250Z,12.60
2023-03-29T16:00:55.225Z,12.50
2023-03-29T16:03:23.994Z,12.60
2023-03-29T16:05:54.781Z,12.60
2023-03-29T16:08:50.967Z,12.60
2023-03-29T16:11:23.907Z,12.60
2023-03-29T16:13:53.018Z,12.50
2023-03-29T16:16:21.553Z,12.50
2023-03-29T16:18:50.417Z,12.50
2023-03-29T16:29:53.763Z,12.40
2023-03-29T16:32:23.495Z,12.40
2023-03-29T16:34:52.441Z,12.40
2023-03-29T16:37:20.930Z,12.40
2023-03-29T16:39:49.908Z,12.40
2023-03-29T16:42:19.669Z,12.40
2023-03-29T16:44:49.276Z,12.30
2023-03-29T16:47:27.917Z,12.30
2023-03-29T16:49:57.650Z,12.30
2023-03-29T16:52:25.938Z,12.30
2023-03-29T16:55:21.064Z,12.30
2023-03-29T16:57:51.248Z,12.30
2023-03-29T17:00:45.650Z,12.20
2023-03-29T17:03:24.723Z,12.30
2023-03-29T17:05:55.998Z,12.20
2023-03-29T17:08:28.260Z,12.20
2023-03-29T17:10:57.939Z,12.20
2023-03-29T17:13:28.305Z,12.20
2023-03-29T17:15:59.428Z,12.20
2023-03-29T17:18:28.776Z,12.20
2023-03-29T17:20:58.882Z,12.20
2023-03-29T17:24:10.148Z,12.10
2023-03-29T17:30:22.269Z,12.10
2023-03-29T17:33:03.872Z,12.10
2023-03-29T17:35:33.634Z,12.00
2023-03-29T17:38:07.938Z,12.00
2023-03-29T17:40:52.711Z,11.90
2023-03-29T17:43:21.017Z,12.00
2023-03-29T17:45:57.922Z,11.90
2023-03-29T17:48:27.256Z,11.90
2023-03-29T17:50:59.832Z,11.90
2023-03-29T17:53:28.280Z,11.80
2023-03-29T17:55:56.838Z,11.80
2023-03-29T17:58:25.407Z,11.80
2023-03-29T18:00:55.772Z,11.80
2023-03-29T18:03:26.454Z,11.70
2023-03-29T18:05:54.723Z,11.70
2023-03-29T18:08:24.240Z,11.70
2023-03-29T18:10:52.448Z,11.70
2023-03-29T18:13:46.868Z,11.70
2023-03-29T18:16:18.641Z,11.70
2023-03-29T18:19:16.536Z,11.70
2023-03-29T18:21:44.826Z,11.70
2023-03-29T18:24:13.179Z,11.70
2023-03-29T18:26:41.835Z,11.80
2023-03-29T18:29:10.240Z,11.80
2023-03-29T18:31:39.938Z,11.80
2023-03-29T18:34:09.728Z,11.80
2023-03-29T18:36:47.181Z,11.70
2023-03-29T18:39:24.276Z,11.70
2023-03-29T18:41:52.736Z,11.70
2023-03-29T18:44:22.082Z,11.60
2023-03-29T18:47:54.132Z,11.60
2023-03-29T18:50:24.059Z,11.60
2023-03-29T18:52:52.411Z,11.60
2023-03-29T18:56:04.687Z,11.60
2023-03-29T18:58:35.095Z,11.60
2023-03-29T19:01:05.525Z,11.60
2023-03-29T19:03:36.837Z,11.70
2023-03-29T19:06:07.093Z,11.70
2023-03-29T19:08:36.764Z,11.90
2023-03-29T19:11:14.808Z,11.80
2023-03-29T19:13:43.471Z,11.80
2023-03-29T19:16:12.384Z,11.80
2023-03-29T19:18:45.073Z,11.80
2023-03-29T19:21:15.264Z,11.80
2023-03-29T19:23:53.019Z,11.80
2023-03-29T19:26:21.749Z,11.80
2023-03-29T19:28:50.474Z,11.80
2023-03-29T19:31:23.996Z,11.80
2023-03-29T19:33:57.962Z,11.80
2023-03-29T19:36:44.561Z,11.80
2023-03-29T19:39:15.992Z,11.80
2023-03-29T19:41:45.715Z,11.80
2023-03-29T19:44:17.573Z,11.80
2023-03-29T19:46:46.322Z,11.70
2023-03-29T19:49:15.852Z,11.70
2023-03-29T19:51:45.742Z,11.70
2023-03-29T19:57:49.519Z,11.70
2023-03-29T20:00:27.509Z,11.60
2023-03-29T20:02:57.558Z,11.70
2023-03-29T20:05:25.808Z,11.60
2023-03-29T20:08:06.704Z,11.60
2023-03-29T20:10:35.934Z,11.60
2023-03-29T20:13:06.744Z,11.40
2023-03-29T20:15:36.551Z,11.50
2023-03-29T20:18:11.031Z,11.50
2023-03-29T20:20:39.244Z,11.50
2023-03-29T20:23:08.846Z,11.50
2023-03-29T20:25:38.457Z,11.50
2023-03-29T20:28:06.660Z,11.50
2023-03-29T20:30:36.407Z,11.50
2023-03-29T20:33:10.623Z,11.60
2023-03-29T20:35:40.580Z,11.60
2023-03-29T20:38:12.860Z,11.60
2023-03-29T20:40:42.009Z,11.60
2023-03-29T20:43:13.534Z,11.70
2023-03-29T20:45:52.670Z,11.70
2023-03-29T20:48:23.601Z,11.70
2023-03-29T20:50:52.561Z,11.70
2023-03-29T20:54:06.735Z,11.70
2023-03-29T20:56:42.497Z,11.60
2023-03-29T20:59:15.210Z,11.70
2023-03-29T21:01:50.338Z,11.70
2023-03-29T21:04:24.514Z,11.70
2023-03-29T21:07:07.893Z,11.70
2023-03-29T21:10:04.242Z,11.60
2023-03-29T21:16:02.868Z,11.70
2023-03-29T21:21:22.798Z,11.70
2023-03-29T21:23:50.967Z,11.80
2023-03-29T21:26:29.630Z,11.80
2023-03-29T21:29:07.174Z,11.80
2023-03-29T21:31:36.796Z,11.70
2023-03-29T21:34:05.266Z,11.60
2023-03-29T21:36:34.917Z,11.60
2023-03-29T21:39:04.693Z,11.60
2023-03-29T21:41:36.707Z,11.60
2023-03-29T21:44:04.988Z,11.60
2023-03-29T21:46:34.441Z,11.60
2023-03-29T21:49:04.013Z,11.60
2023-03-29T21:51:32.760Z,11.60
2023-03-29T21:56:50.328Z,11.60
2023-03-29T21:59:37.751Z,11.60
2023-03-29T22:02:08.201Z,11.60
2023-03-29T22:04:46.457Z,11.60
2023-03-29T22:07:15.096Z,11.50
2023-03-29T22:09:44.496Z,11.70
2023-03-29T22:12:18.705Z,11.70
2023-03-29T22:14:47.053Z,11.80
2023-03-29T22:17:16.019Z,11.70
2023-03-29T22:19:44.235Z,11.70
2023-03-29T22:22:16.426Z,11.70
2023-03-29T22:24:44.817Z,11.70
2023-03-29T22:27:20.087Z,11.70
2023-03-29T22:29:54.450Z,11.70
2023-03-29T22:32:30.221Z,11.60
2023-03-29T22:34:59.895Z,11.50
2023-03-29T22:37:30.851Z,11.50
2023-03-29T22:39:59.752Z,11.40
2023-03-29T22:42:33.096Z,11.50
2023-03-29T22:45:01.818Z,11.60
2023-03-29T22:47:37.861Z,11.70
2023-03-29T22:50:11.896Z,11.70
2023-03-29T22:52:43.620Z,11.70
2023-03-29T22:55:13.281Z,11.60
2023-03-29T22:57:59.300Z,11.70
2023-03-29T23:00:41.549Z,11.80
2023-03-29T23:03:11.406Z,11.80
2023-03-29T23:05:48.871Z,11.70
2023-03-29T23:10:49.970Z,11.70
2023-03-29T23:13:25.732Z,11.70
2023-03-29T23:16:27.499Z,11.60
2023-03-29T23:19:17.283Z,11.60
2023-03-29T23:21:49.164Z,11.60
2023-03-29T23:24:21.109Z,11.50
2023-03-29T23:26:58.778Z,11.30
2023-03-29T23:29:32.883Z,11.20
2023-03-29T23:32:03.357Z,11.10
2023-03-29T23:34:33.197Z,11.10
2023-03-29T23:37:04.577Z,11.00
2023-03-29T23:39:35.847Z,10.90
2023-03-29T23:42:12.082Z,10.80
2023-03-29T23:44:41.817Z,10.80
2023-03-29T23:47:10.360Z,10.70
2023-03-29T23:49:38.712Z,10.80
2023-03-29T23:52:08.258Z,10.70
2023-03-29T23:54:37.766Z,10.70
2023-03-29T23:57:07.406Z,10.60
2023-03-29T23:59:38.302Z,10.60
